Time;durP1;ratioP1;P1;durP2;ratioP2;P2;SDS_P1;SDS_P2;PMS_P1;PMS_P2;Temp;Humidity;BMP_temperature;BMP_pressure;BME280_temperature;BME280_humidity;BME280_pressure;Samples;Min_cycle;Max_cycle;Signal;HPM_P1;HPM_P2
2021/06/22 00:00:10;;;;;;;11.70;4.70;;;;;;;;;;6282356;22;20030;-82
2021/06/22 00:02:37;;;;;;;13.13;5.03;;;;;;;;;;6255822;22;20031;-82
2021/06/22 00:05:05;;;;;;;12.73;4.88;;;;;;;;;;6258253;22;20046;-81
2021/06/22 00:07:34;;;;;;;14.82;4.47;;;;;;;;;;6257011;22;20035;-82
2021/06/22 00:10:01;;;;;;;16.45;5.22;;;;;;;;;;6282466;22;20294;-82
2021/06/22 00:12:40;;;;;;;10.52;5.00;;;;;;;;;;6283252;22;20024;-81
2021/06/22 00:15:07;;;;;;;15.80;5.38;;;;;;;;;;6257419;22;20046;-82
2021/06/22 00:17:34;;;;;;;15.77;4.25;;;;;;;;;;6284190;22;20023;-82
2021/06/22 00:20:05;;;;;;;11.60;4.43;;;;;;;;;;6259014;22;20398;-83
2021/06/22 00:22:32;;;;;;;13.57;4.85;;;;;;;;;;6286009;22;20409;-83
2021/06/22 00:24:58;;;;;;;17.98;5.10;;;;;;;;;;6284976;22;20028;-82
2021/06/22 00:27:25;;;;;;;13.50;4.72;;;;;;;;;;6285314;22;20019;-81
2021/06/22 00:29:51;;;;;;;14.10;5.05;;;;;;;;;;6258915;22;20027;-81
2021/06/22 00:32:24;;;;;;;14.30;4.78;;;;;;;;;;6256789;22;20031;-82
2021/06/22 00:34:54;;;;;;;9.55;4.45;;;;;;;;;;6257886;22;20028;-82
2021/06/22 00:37:21;;;;;;;10.38;4.57;;;;;;;;;;6256482;22;20097;-82
2021/06/22 00:39:48;;;;;;;12.13;4.70;;;;;;;;;;6257880;22;20020;-82
2021/06/22 00:42:16;;;;;;;11.48;5.18;;;;;;;;;;6285113;22;20023;-82
2021/06/22 00:44:46;;;;;;;12.93;4.68;;;;;;;;;;6257685;22;20290;-82
2021/06/22 00:47:17;;;;;;;15.60;5.18;;;;;;;;;;6285370;22;20038;-82
2021/06/22 00:49:44;;;;;;;16.30;5.38;;;;;;;;;;6283471;22;20077;-82
2021/06/22 00:52:11;;;;;;;16.13;5.30;;;;;;;;;;6284746;22;20031;-83
2021/06/22 00:54:41;;;;;;;25.95;5.95;;;;;;;;;;6259617;22;20023;-83
2021/06/22 00:57:08;;;;;;;17.80;5.82;;;;;;;;;;6258753;22;20026;-82
2021/06/22 00:59:35;;;;;;;16.80;4.97;;;;;;;;;;6257344;22;20023;-83
2021/06/22 01:02:05;;;;;;;14.90;5.68;;;;;;;;;;6285822;22;20242;-83
2021/06/22 01:04:33;;;;;;;18.70;5.82;;;;;;;;;;6258499;22;20023;-82
2021/06/22 01:07:00;;;;;;;16.70;6.15;;;;;;;;;;6258448;22;20038;-82
2021/06/22 01:09:30;;;;;;;16.17;6.28;;;;;;;;;;6260320;22;20034;-82
2021/06/22 01:11:58;;;;;;;16.05;6.15;;;;;;;;;;6272321;22;20079;-82
2021/06/22 01:14:25;;;;;;;19.08;6.63;;;;;;;;;;6275877;22;20075;-82
2021/06/22 01:16:52;;;;;;;18.88;6.78;;;;;;;;;;6262754;22;20095;-82
2021/06/22 01:19:19;;;;;;;21.05;7.00;;;;;;;;;;6259511;22;20354;-83
2021/06/22 01:21:46;;;;;;;19.83;7.07;;;;;;;;;;6258462;22;20023;-83
2021/06/22 01:24:17;;;;;;;21.17;6.10;;;;;;;;;;6258024;22;20050;-83
2021/06/22 01:26:51;;;;;;;19.40;6.63;;;;;;;;;;6281133;22;20086;-83
2021/06/22 01:29:18;;;;;;;23.95;6.85;;;;;;;;;;6257059;22;20038;-83
2021/06/22 01:31:45;;;;;;;15.30;6.00;;;;;;;;;;6256423;22;20405;-83
2021/06/22 01:34:12;;;;;;;16.70;5.88;;;;;;;;;;6282208;22;20039;-83
2021/06/22 01:36:44;;;;;;;18.30;6.53;;;;;;;;;;6258657;22;20027;-83
2021/06/22 01:39:12;;;;;;;13.70;6.05;;;;;;;;;;6259901;22;20059;-83
2021/06/22 01:41:39;;;;;;;24.52;6.72;;;;;;;;;;6257598;22;20046;-83
2021/06/22 01:44:12;;;;;;;21.38;6.50;;;;;;;;;;6283725;22;20058;-83
2021/06/22 01:46:39;;;;;;;15.75;6.72;;;;;;;;;;6282539;22;20027;-83
2021/06/22 01:49:05;;;;;;;18.25;6.85;;;;;;;;;;6254688;22;20420;-83
2021/06/22 01:51:35;;;;;;;21.30;5.88;;;;;;;;;;6283314;22;20024;-83
2021/06/22 01:54:02;;;;;;;22.42;6.53;;;;;;;;;;6283361;22;20042;-83
2021/06/22 01:56:30;;;;;;;18.45;6.68;;;;;;;;;;6283380;22;20024;-83
2021/06/22 01:58:59;;;;;;;19.30;7.15;;;;;;;;;;6256191;22;20494;-83
2021/06/22 02:01:25;;;;;;;14.45;6.55;;;;;;;;;;6281465;22;20050;-83
2021/06/22 02:03:52;;;;;;;29.17;7.22;;;;;;;;;;6281536;22;20023;-83
2021/06/22 02:06:19;;;;;;;20.92;7.03;;;;;;;;;;6256198;22;20039;-83
2021/06/22 02:08:45;;;;;;;16.83;7.38;;;;;;;;;;6280494;22;20034;-83
2021/06/22 02:11:13;;;;;;;15.00;6.90;;;;;;;;;;6255854;22;20029;-83
2021/06/22 02:13:40;;;;;;;17.88;7.80;;;;;;;;;;6280905;22;20024;-83
2021/06/22 02:16:13;;;;;;;21.38;7.38;;;;;;;;;;6255366;22;20024;-83
2021/06/22 02:18:43;;;;;;;16.20;6.90;;;;;;;;;;6279897;22;20028;-83
2021/06/22 02:21:10;;;;;;;16.65;7.88;;;;;;;;;;6254244;22;20020;-83
2021/06/22 02:23:37;;;;;;;15.98;7.03;;;;;;;;;;6282402;22;20020;-83
2021/06/22 02:26:10;;;;;;;18.65;6.90;;;;;;;;;;6279976;22;20027;-83
2021/06/22 02:28:36;;;;;;;22.90;7.43;;;;;;;;;;6253013;22;20030;-83
2021/06/22 02:31:03;;;;;;;18.08;7.05;;;;;;;;;;6252682;22;20023;-83
2021/06/22 02:33:33;;;;;;;20.27;6.78;;;;;;;;;;6279998;22;20024;-83
2021/06/22 02:35:59;;;;;;;18.83;7.25;;;;;;;;;;6254367;22;20280;-82
2021/06/22 02:38:26;;;;;;;16.88;6.38;;;;;;;;;;6279918;22;20390;-82
2021/06/22 02:40:56;;;;;;;16.58;6.97;;;;;;;;;;6256134;22;20077;-83
2021/06/22 02:43:22;;;;;;;29.60;7.72;;;;;;;;;;6256323;22;20237;-83
2021/06/22 02:45:49;;;;;;;17.73;7.80;;;;;;;;;;6256637;22;20440;-83
2021/06/22 02:48:19;;;;;;;16.23;7.88;;;;;;;;;;6256324;22;20039;-83
2021/06/22 02:50:46;;;;;;;19.88;7.85;;;;;;;;;;6283516;22;20150;-83
2021/06/22 02:53:12;;;;;;;16.60;7.40;;;;;;;;;;6256488;22;20024;-83
2021/06/22 02:55:40;;;;;;;23.70;8.25;;;;;;;;;;6256645;22;20023;-83
2021/06/22 02:58:07;;;;;;;21.63;8.13;;;;;;;;;;6258115;22;20023;-83
2021/06/22 03:00:34;;;;;;;28.40;8.45;;;;;;;;;;6283781;22;20107;-83
2021/06/22 03:03:00;;;;;;;19.67;8.27;;;;;;;;;;6257950;22;20020;-83
2021/06/22 03:05:36;;;;;;;22.90;8.07;;;;;;;;;;6285445;22;20344;-84
2021/06/22 03:08:03;;;;;;;15.48;7.22;;;;;;;;;;6291296;22;20063;-83
2021/06/22 03:10:30;;;;;;;18.65;7.50;;;;;;;;;;6296418;22;20191;-83
2021/06/22 03:13:00;;;;;;;18.25;7.15;;;;;;;;;;6297243;22;20085;-83
2021/06/22 03:15:27;;;;;;;17.55;7.75;;;;;;;;;;6296394;22;20024;-83
2021/06/22 03:17:54;;;;;;;18.95;7.75;;;;;;;;;;6284633;22;20050;-83
2021/06/22 03:20:22;;;;;;;20.60;7.78;;;;;;;;;;6256633;22;20035;-83
2021/06/22 03:22:49;;;;;;;15.27;7.28;;;;;;;;;;6253999;22;20055;-83
2021/06/22 03:25:16;;;;;;;18.70;7.60;;;;;;;;;;6254003;22;20099;-83
2021/06/22 03:27:44;;;;;;;13.43;7.30;;;;;;;;;;6254581;22;20070;-83
2021/06/22 03:30:12;;;;;;;15.68;7.45;;;;;;;;;;6280774;22;20255;-83
2021/06/22 03:32:39;;;;;;;16.88;7.32;;;;;;;;;;6253662;22;20027;-84
2021/06/22 03:35:09;;;;;;;17.70;7.35;;;;;;;;;;6280884;22;20047;-82
2021/06/22 03:37:36;;;;;;;15.85;6.90;;;;;;;;;;6254748;22;20032;-83
2021/06/22 03:40:05;;;;;;;20.20;7.40;;;;;;;;;;6254689;22;20098;-84
2021/06/22 03:42:32;;;;;;;18.38;7.45;;;;;;;;;;6282609;22;20024;-83
2021/06/22 03:45:09;;;;;;;21.67;6.95;;;;;;;;;;6255878;22;20394;-83
2021/06/22 03:47:36;;;;;;;16.17;7.40;;;;;;;;;;6256224;22;20039;-82
2021/06/22 03:50:03;;;;;;;14.70;6.50;;;;;;;;;;6262359;22;20027;-82
2021/06/22 03:52:40;;;;;;;28.15;7.03;;;;;;;;;;6287789;22;20034;-83
2021/06/22 03:55:26;;;;;;;22.83;7.28;;;;;;;;;;6258378;22;20057;-83
2021/06/22 03:58:14;;;;;;;16.17;6.95;;;;;;;;;;6263880;22;20038;-84
2021/06/22 04:00:40;;;;;;;15.38;6.70;;;;;;;;;;6263652;22;20305;-82
2021/06/22 04:03:07;;;;;;;23.55;7.35;;;;;;;;;;6287937;22;20020;-83
2021/06/22 04:05:37;;;;;;;21.67;7.22;;;;;;;;;;6258162;22;20023;-83
2021/06/22 04:08:04;;;;;;;21.02;7.55;;;;;;;;;;6256784;22;20149;-83
2021/06/22 04:10:31;;;;;;;17.90;7.32;;;;;;;;;;6285011;22;20047;-82
2021/06/22 04:12:58;;;;;;;19.77;6.88;;;;;;;;;;6283340;22;20286;-83
2021/06/22 04:15:25;;;;;;;22.13;5.90;;;;;;;;;;6283712;22;20056;-82
2021/06/22 04:17:59;;;;;;;20.08;5.32;;;;;;;;;;6258135;22;20024;-83
2021/06/22 04:20:25;;;;;;;16.67;5.72;;;;;;;;;;6257311;22;20366;-83
2021/06/22 04:22:52;;;;;;;14.02;4.85;;;;;;;;;;6284697;22;20023;-82
2021/06/22 04:28:42;;;;;;;16.02;5.03;;;;;;;;;;6286644;22;20018;-83
2021/06/22 04:35:09;;;;;;;17.77;5.53;;;;;;;;;;6299849;22;20158;-83
2021/06/22 04:37:38;;;;;;;15.52;5.55;;;;;;;;;;6271419;22;20028;-83
2021/06/22 04:40:07;;;;;;;33.33;6.30;;;;;;;;;;6299927;22;20035;-83
2021/06/22 04:42:34;;;;;;;26.55;5.22;;;;;;;;;;6300668;22;20023;-83
2021/06/22 04:45:01;;;;;;;15.70;4.88;;;;;;;;;;6273901;22;20027;-84
2021/06/22 04:47:41;;;;;;;15.77;4.50;;;;;;;;;;6275447;22;20018;-81
2021/06/22 04:50:22;;;;;;;21.17;4.85;;;;;;;;;;6298487;22;20027;-83
2021/06/22 04:52:50;;;;;;;15.43;4.40;;;;;;;;;;6297969;22;20011;-83
2021/06/22 04:55:20;;;;;;;19.13;5.03;;;;;;;;;;6295748;22;20181;-84
2021/06/22 04:57:49;;;;;;;15.45;5.15;;;;;;;;;;6292434;22;20042;-83
2021/06/22 05:00:17;;;;;;;13.25;4.45;;;;;;;;;;6265095;22;20148;-83
2021/06/22 05:02:44;;;;;;;14.68;4.55;;;;;;;;;;6289697;22;20104;-83
2021/06/22 05:05:12;;;;;;;14.93;3.95;;;;;;;;;;6283261;22;20031;-84
2021/06/22 05:07:49;;;;;;;16.30;4.10;;;;;;;;;;6255187;22;20034;-84
2021/06/22 05:10:15;;;;;;;15.48;3.15;;;;;;;;;;6282289;22;20038;-84
2021/06/22 05:12:45;;;;;;;16.90;4.43;;;;;;;;;;6257314;22;20027;-84
2021/06/22 05:15:18;;;;;;;16.38;3.53;;;;;;;;;;6281297;22;20024;-84
2021/06/22 05:17:45;;;;;;;10.23;3.13;;;;;;;;;;6254544;22;20031;-84
2021/06/22 05:20:12;;;;;;;17.17;3.42;;;;;;;;;;6254912;22;20024;-84
2021/06/22 05:22:46;;;;;;;18.23;3.17;;;;;;;;;;6252442;22;20030;-84
2021/06/22 05:25:20;;;;;;;9.48;3.25;;;;;;;;;;6254154;22;20023;-83
2021/06/22 05:27:50;;;;;;;14.82;3.22;;;;;;;;;;6252900;22;20058;-85
2021/06/22 05:30:17;;;;;;;13.38;2.60;;;;;;;;;;6251132;22;20031;-83
2021/06/22 05:32:52;;;;;;;14.00;2.60;;;;;;;;;;6252070;22;20067;-83
2021/06/22 05:35:19;;;;;;;17.20;2.60;;;;;;;;;;6276922;22;20035;-83
2021/06/22 05:37:46;;;;;;;11.32;2.70;;;;;;;;;;6250645;22;20030;-85
2021/06/22 05:40:13;;;;;;;16.52;2.88;;;;;;;;;;6278622;22;20031;-85
2021/06/22 05:42:47;;;;;;;11.88;3.63;;;;;;;;;;6249986;22;20036;-84
2021/06/22 05:45:13;;;;;;;12.88;3.08;;;;;;;;;;6247789;22;20028;-84
2021/06/22 05:47:46;;;;;;;10.18;3.15;;;;;;;;;;6276905;22;20093;-87
2021/06/22 05:50:13;;;;;;;8.10;2.85;;;;;;;;;;6248145;22;20085;-84
2021/06/22 05:52:47;;;;;;;10.63;2.88;;;;;;;;;;6274330;22;20161;-84
2021/06/22 05:55:21;;;;;;;12.98;3.28;;;;;;;;;;6249924;22;20019;-84
2021/06/22 05:57:52;;;;;;;11.95;3.13;;;;;;;;;;6244279;23;20038;-84
2021/06/22 06:00:22;;;;;;;14.50;3.58;;;;;;;;;;6247814;23;20027;-85
2021/06/22 06:02:50;;;;;;;15.45;3.00;;;;;;;;;;6247312;23;20061;-84
2021/06/22 06:05:24;;;;;;;12.27;3.08;;;;;;;;;;6254404;22;20097;-85
2021/06/22 06:07:52;;;;;;;16.20;3.80;;;;;;;;;;6251295;23;20051;-84
2021/06/22 06:10:22;;;;;;;16.67;2.85;;;;;;;;;;6247566;23;20039;-84
2021/06/22 06:13:01;;;;;;;13.07;2.67;;;;;;;;;;6249040;22;20024;-83
2021/06/22 06:15:30;;;;;;;10.23;3.30;;;;;;;;;;6246760;23;20028;-84
2021/06/22 06:17:57;;;;;;;11.88;2.60;;;;;;;;;;6247926;23;20211;-82
2021/06/22 06:20:26;;;;;;;14.40;2.88;;;;;;;;;;6247767;23;20020;-84
2021/06/22 06:23:04;;;;;;;7.63;2.08;;;;;;;;;;6248422;23;20024;-83
2021/06/22 06:25:36;;;;;;;18.50;2.80;;;;;;;;;;6248317;22;20023;-84
2021/06/22 06:28:12;;;;;;;7.30;2.20;;;;;;;;;;6248228;22;20039;-83
2021/06/22 06:30:38;;;;;;;12.57;2.90;;;;;;;;;;6247979;23;20108;-83
2021/06/22 06:33:09;;;;;;;10.63;2.55;;;;;;;;;;6247276;23;20408;-84
2021/06/22 06:35:36;;;;;;;9.75;2.95;;;;;;;;;;6247785;23;20073;-83
2021/06/22 06:38:02;;;;;;;11.68;2.10;;;;;;;;;;6248599;23;20059;-84
2021/06/22 06:40:29;;;;;;;9.25;2.72;;;;;;;;;;6245572;23;20314;-83
2021/06/22 06:42:56;;;;;;;13.35;3.08;;;;;;;;;;6244654;23;20294;-84
2021/06/22 06:45:23;;;;;;;13.13;2.85;;;;;;;;;;6250287;23;20159;-86
2021/06/22 06:47:51;;;;;;;10.50;2.80;;;;;;;;;;6248869;22;20378;-83
2021/06/22 06:50:27;;;;;;;10.75;2.25;;;;;;;;;;6245380;23;20050;-84
2021/06/22 06:52:54;;;;;;;13.55;3.17;;;;;;;;;;6244450;22;20078;-84
2021/06/22 06:55:28;;;;;;;7.15;2.38;;;;;;;;;;6245499;22;20382;-83
2021/06/22 06:58:03;;;;;;;5.95;1.90;;;;;;;;;;6266002;22;20343;-84
2021/06/22 07:00:32;;;;;;;8.70;2.30;;;;;;;;;;6248737;22;20026;-83
2021/06/22 07:02:59;;;;;;;12.88;2.70;;;;;;;;;;6247959;22;20019;-83
2021/06/22 07:05:49;;;;;;;10.93;2.65;;;;;;;;;;6247408;22;20050;-83
2021/06/22 07:08:17;;;;;;;12.05;2.55;;;;;;;;;;6274398;22;20369;-83
2021/06/22 07:10:44;;;;;;;8.15;2.35;;;;;;;;;;6247924;22;20044;-82
2021/06/22 07:13:17;;;;;;;9.50;2.95;;;;;;;;;;6245411;22;20095;-83
2021/06/22 07:15:45;;;;;;;16.25;3.17;;;;;;;;;;6273946;22;20521;-84
2021/06/22 07:18:12;;;;;;;14.05;2.63;;;;;;;;;;6271371;22;20039;-84
2021/06/22 07:20:49;;;;;;;7.13;2.17;;;;;;;;;;6249391;22;20062;-84
2021/06/22 07:23:18;;;;;;;11.10;2.25;;;;;;;;;;6279005;22;20081;-84
2021/06/22 07:25:45;;;;;;;10.10;2.17;;;;;;;;;;6253593;22;20023;-84
2021/06/22 07:28:12;;;;;;;8.23;2.03;;;;;;;;;;6254994;22;20440;-83
2021/06/22 07:30:39;;;;;;;10.48;2.05;;;;;;;;;;6254576;22;20401;-83
2021/06/22 07:33:05;;;;;;;8.05;2.38;;;;;;;;;;6279869;22;20042;-83
2021/06/22 07:35:33;;;;;;;7.82;2.30;;;;;;;;;;6282503;22;20051;-84
2021/06/22 07:38:04;;;;;;;13.45;2.38;;;;;;;;;;6253468;22;20340;-84
2021/06/22 07:40:31;;;;;;;10.10;2.45;;;;;;;;;;6258180;22;20024;-84
2021/06/22 07:42:58;;;;;;;11.32;3.25;;;;;;;;;;6251789;22;20024;-84
2021/06/22 07:45:26;;;;;;;9.70;2.50;;;;;;;;;;6278368;22;20031;-82
2021/06/22 07:47:55;;;;;;;11.90;2.63;;;;;;;;;;6280993;22;20436;-84
2021/06/22 07:50:24;;;;;;;11.57;2.38;;;;;;;;;;6258553;22;20021;-84
2021/06/22 07:52:55;;;;;;;11.85;2.55;;;;;;;;;;6266253;22;20155;-84
2021/06/22 07:55:25;;;;;;;12.45;2.53;;;;;;;;;;6261553;22;20349;-84
2021/06/22 07:57:53;;;;;;;7.15;2.10;;;;;;;;;;6247424;23;20108;-83
2021/06/22 08:03:48;;;;;;;;;;;;;;;;;;6247310;23;20011;-84
2021/06/22 08:06:15;;;;;;;9.00;2.13;;;;;;;;;;6244520;23;19922;-84
2021/06/22 08:08:42;;;;;;;10.73;2.58;;;;;;;;;;6247146;23;20080;-84
2021/06/22 08:11:12;;;;;;;8.63;2.53;;;;;;;;;;6254634;23;20107;-85
2021/06/22 08:13:39;;;;;;;11.35;3.25;;;;;;;;;;6258383;23;20024;-85
2021/06/22 08:16:06;;;;;;;6.97;2.80;;;;;;;;;;6258994;23;20051;-86
2021/06/22 08:18:39;;;;;;;10.13;2.50;;;;;;;;;;6252175;23;20076;-85
2021/06/22 08:21:06;;;;;;;13.02;2.67;;;;;;;;;;6250297;22;20020;-85
2021/06/22 08:23:35;;;;;;;8.15;2.95;;;;;;;;;;6251145;23;20055;-84
2021/06/22 08:26:02;;;;;;;12.73;2.67;;;;;;;;;;6250935;23;20020;-84
2021/06/22 08:28:30;;;;;;;17.00;3.00;;;;;;;;;;6250790;23;20028;-82
2021/06/22 08:31:01;;;;;;;11.10;2.47;;;;;;;;;;6249505;22;20032;-83
2021/06/22 08:33:28;;;;;;;14.23;2.92;;;;;;;;;;6246269;23;20066;-84
2021/06/22 08:35:58;;;;;;;9.07;2.72;;;;;;;;;;6248058;23;20027;-82
2021/06/22 08:38:27;;;;;;;6.25;1.88;;;;;;;;;;6248669;23;20082;-83
2021/06/22 08:40:56;;;;;;;8.48;2.75;;;;;;;;;;6249373;22;20110;-83
2021/06/22 08:43:26;;;;;;;9.60;2.25;;;;;;;;;;6248548;23;20107;-83
2021/06/22 08:45:53;;;;;;;7.03;2.00;;;;;;;;;;6248865;23;20035;-84
2021/06/22 08:48:19;;;;;;;10.85;2.40;;;;;;;;;;6255412;23;20111;-84
2021/06/22 08:50:56;;;;;;;8.55;2.47;;;;;;;;;;6252350;22;20393;-84
2021/06/22 08:53:23;;;;;;;5.75;2.30;;;;;;;;;;6250982;23;20174;-82
2021/06/22 08:55:52;;;;;;;10.73;2.13;;;;;;;;;;6251796;23;20024;-84
2021/06/22 08:58:29;;;;;;;13.27;2.30;;;;;;;;;;6252525;23;20030;-84
2021/06/22 09:00:56;;;;;;;8.10;1.80;;;;;;;;;;6253735;23;20051;-84
2021/06/22 09:03:26;;;;;;;7.82;2.10;;;;;;;;;;6254107;23;20047;-85
2021/06/22 09:06:04;;;;;;;9.65;2.38;;;;;;;;;;6255734;22;20043;-83
2021/06/22 09:08:37;;;;;;;6.93;1.98;;;;;;;;;;6252953;22;20028;-84
2021/06/22 09:11:08;;;;;;;8.75;2.33;;;;;;;;;;6253600;23;20024;-83
2021/06/22 09:13:35;;;;;;;8.55;2.05;;;;;;;;;;6255440;22;20075;-85
2021/06/22 09:16:02;;;;;;;7.03;1.95;;;;;;;;;;6253297;23;20035;-84
2021/06/22 09:18:29;;;;;;;7.45;2.05;;;;;;;;;;6254167;23;20164;-83
2021/06/22 09:21:06;;;;;;;10.35;2.28;;;;;;;;;;6254708;22;20042;-83
2021/06/22 09:23:38;;;;;;;4.38;1.90;;;;;;;;;;6254610;23;20024;-83
2021/06/22 09:26:11;;;;;;;8.52;2.45;;;;;;;;;;6255836;23;20020;-83
2021/06/22 09:28:39;;;;;;;10.40;2.13;;;;;;;;;;6253751;23;20111;-84
2021/06/22 09:31:16;;;;;;;9.88;2.50;;;;;;;;;;6256996;22;20054;-86
2021/06/22 09:33:51;;;;;;;7.68;2.42;;;;;;;;;;6253435;22;20059;-83
2021/06/22 09:36:26;;;;;;;10.83;2.63;;;;;;;;;;6254198;23;20028;-84
2021/06/22 09:38:53;;;;;;;8.77;2.53;;;;;;;;;;6252027;23;20051;-83
2021/06/22 09:41:27;;;;;;;7.20;1.92;;;;;;;;;;6251429;23;20058;-83
2021/06/22 09:44:20;;;;;;;9.05;2.25;;;;;;;;;;6249833;22;20108;-83
2021/06/22 09:46:49;;;;;;;7.80;2.10;;;;;;;;;;6252534;23;20035;-83
2021/06/22 09:49:17;;;;;;;7.97;2.25;;;;;;;;;;6249653;23;20055;-82
2021/06/22 09:52:13;;;;;;;6.30;2.47;;;;;;;;;;6244871;22;20287;-82
2021/06/22 09:54:47;;;;;;;8.75;2.33;;;;;;;;;;6244691;23;20208;-83
2021/06/22 09:57:14;;;;;;;6.25;1.90;;;;;;;;;;6251258;22;20050;-82
2021/06/22 09:59:45;;;;;;;8.25;2.58;;;;;;;;;;6254769;22;20032;-83
2021/06/22 10:02:16;;;;;;;9.05;2.10;;;;;;;;;;6254001;22;20023;-82
2021/06/22 10:04:49;;;;;;;8.13;2.50;;;;;;;;;;6252808;22;20161;-83
2021/06/22 10:07:26;;;;;;;8.38;2.20;;;;;;;;;;6256399;22;20038;-83
2021/06/22 10:10:05;;;;;;;10.80;2.40;;;;;;;;;;6255054;22;20314;-83
2021/06/22 10:12:37;;;;;;;9.90;2.38;;;;;;;;;;6254465;22;20019;-83
2021/06/22 10:15:13;;;;;;;7.15;1.90;;;;;;;;;;6259785;22;20020;-82
2021/06/22 10:17:41;;;;;;;10.02;2.15;;;;;;;;;;6280319;22;20043;-81
2021/06/22 10:20:08;;;;;;;9.57;2.03;;;;;;;;;;6253018;22;20055;-83
2021/06/22 10:22:45;;;;;;;7.20;2.00;;;;;;;;;;6278929;22;20039;-82
2021/06/22 10:25:17;;;;;;;9.73;2.63;;;;;;;;;;6255145;22;20256;-84
2021/06/22 10:27:44;;;;;;;10.02;1.95;;;;;;;;;;6276849;22;20605;-83
2021/06/22 10:30:20;;;;;;;9.88;2.15;;;;;;;;;;6251982;22;20263;-83
2021/06/22 10:32:55;;;;;;;4.93;1.80;;;;;;;;;;6279936;22;20011;-83
2021/06/22 10:35:25;;;;;;;8.90;2.00;;;;;;;;;;6258861;22;20079;-83
2021/06/22 10:37:56;;;;;;;10.63;2.28;;;;;;;;;;6270543;22;20015;-83
2021/06/22 10:40:54;;;;;;;6.25;2.10;;;;;;;;;;6270119;22;20012;-84
2021/06/22 10:43:37;;;;;;;7.63;1.70;;;;;;;;;;6296165;22;20008;-82
2021/06/22 10:46:06;;;;;;;11.10;2.25;;;;;;;;;;6294566;22;20027;-81
2021/06/22 10:48:55;;;;;;;4.50;1.42;;;;;;;;;;6264430;22;20161;-82
2021/06/22 10:51:27;;;;;;;9.82;2.40;;;;;;;;;;6258010;22;20188;-83
2021/06/22 10:53:54;;;;;;;7.93;2.38;;;;;;;;;;6255968;22;20071;-83
2021/06/22 10:56:23;;;;;;;11.18;2.30;;;;;;;;;;6255746;22;20023;-83
2021/06/22 10:59:10;;;;;;;7.85;2.38;;;;;;;;;;6280261;22;20042;-82
2021/06/22 11:01:52;;;;;;;16.27;2.20;;;;;;;;;;6284508;22;20051;-82
2021/06/22 11:04:25;;;;;;;8.13;2.17;;;;;;;;;;6257482;22;20256;-83
2021/06/22 11:07:07;;;;;;;9.15;2.33;;;;;;;;;;6287539;22;20027;-83
2021/06/22 11:09:34;;;;;;;9.60;1.92;;;;;;;;;;6268757;22;20023;-84
2021/06/22 11:12:20;;;;;;;7.95;2.15;;;;;;;;;;6267762;22;20007;-83
2021/06/22 11:18:20;;;;;;;9.80;2.00;;;;;;;;;;6280096;22;20010;-82
2021/06/22 11:21:20;;;;;;;10.13;2.22;;;;;;;;;;6254915;22;20199;-83
2021/06/22 11:23:55;;;;;;;8.77;1.98;;;;;;;;;;6286587;22;20204;-83
2021/06/22 11:26:45;;;;;;;8.40;2.10;;;;;;;;;;6267738;22;20062;-83
2021/06/22 11:29:12;;;;;;;8.55;1.90;;;;;;;;;;6267920;22;20015;-82
2021/06/22 11:31:40;;;;;;;8.32;2.45;;;;;;;;;;6268184;22;20015;-83
2021/06/22 11:34:09;;;;;;;12.15;2.03;;;;;;;;;;6267454;22;20139;-83
2021/06/22 11:36:39;;;;;;;8.45;2.35;;;;;;;;;;6269371;22;20077;-82
2021/06/22 11:39:09;;;;;;;10.25;2.10;;;;;;;;;;6270231;22;20039;-83
2021/06/22 11:41:40;;;;;;;11.07;2.10;;;;;;;;;;6297992;22;20112;-84
2021/06/22 11:44:07;;;;;;;11.35;2.15;;;;;;;;;;6296294;22;20016;-84
2021/06/22 11:46:35;;;;;;;6.45;2.03;;;;;;;;;;6268832;22;20019;-82
2021/06/22 11:49:03;;;;;;;9.07;2.03;;;;;;;;;;6269133;22;20060;-82
2021/06/22 11:51:48;;;;;;;6.32;1.60;;;;;;;;;;6287436;22;20328;-82
2021/06/22 11:54:18;;;;;;;7.53;1.75;;;;;;;;;;6257659;22;20258;-82
2021/06/22 11:56:49;;;;;;;6.20;1.83;;;;;;;;;;6282038;22;20161;-83
2021/06/22 11:59:45;;;;;;;10.18;2.08;;;;;;;;;;6252732;22;20028;-82
2021/06/22 12:02:15;;;;;;;10.60;2.45;;;;;;;;;;6251904;22;20149;-82
2021/06/22 12:04:45;;;;;;;9.43;1.98;;;;;;;;;;6253530;22;20024;-83
2021/06/22 12:07:12;;;;;;;8.27;2.08;;;;;;;;;;6250980;22;20356;-82
2021/06/22 12:09:43;;;;;;;10.82;1.83;;;;;;;;;;6254696;22;20012;-83
2021/06/22 12:12:10;;;;;;;9.45;1.80;;;;;;;;;;6254118;22;20101;-85
2021/06/22 12:14:46;;;;;;;10.80;2.00;;;;;;;;;;6280834;22;20020;-82
2021/06/22 12:17:16;;;;;;;9.70;1.85;;;;;;;;;;6279960;22;20440;-82
2021/06/22 12:19:44;;;;;;;8.10;1.88;;;;;;;;;;6254193;22;20314;-84
2021/06/22 12:22:12;;;;;;;5.75;1.73;;;;;;;;;;6253425;22;20085;-81
2021/06/22 12:24:44;;;;;;;9.25;2.42;;;;;;;;;;6276284;22;20034;-82
2021/06/22 12:27:13;;;;;;;6.88;1.50;;;;;;;;;;6271705;22;20035;-83
2021/06/22 12:29:42;;;;;;;5.65;1.83;;;;;;;;;;6249735;22;20184;-83
2021/06/22 12:32:10;;;;;;;8.55;1.83;;;;;;;;;;6254094;22;20071;-82
2021/06/22 12:34:40;;;;;;;8.15;2.00;;;;;;;;;;6276673;22;20127;-83
2021/06/22 12:37:24;;;;;;;7.45;1.92;;;;;;;;;;6256670;22;20050;-82
2021/06/22 12:39:54;;;;;;;7.20;1.70;;;;;;;;;;6251700;22;20060;-82
2021/06/22 12:42:21;;;;;;;8.32;2.00;;;;;;;;;;6280008;22;20077;-82
2021/06/22 12:44:48;;;;;;;9.40;2.22;;;;;;;;;;6280529;22;20036;-83
2021/06/22 12:47:21;;;;;;;10.55;2.10;;;;;;;;;;6254184;22;20062;-82
2021/06/22 12:49:52;;;;;;;12.65;3.45;;;;;;;;;;6251385;22;20273;-81
2021/06/22 12:52:22;;;;;;;13.85;2.85;;;;;;;;;;6250878;22;20072;-82
2021/06/22 12:54:55;;;;;;;11.38;1.77;;;;;;;;;;6278781;22;20313;-83
2021/06/22 12:57:22;;;;;;;8.98;1.90;;;;;;;;;;6250049;23;20095;-82
2021/06/22 13:00:05;;;;;;;10.52;2.25;;;;;;;;;;6247982;22;20039;-84
2021/06/22 13:02:33;;;;;;;11.45;1.90;;;;;;;;;;6247336;23;20111;-82
2021/06/22 13:05:04;;;;;;;5.60;1.77;;;;;;;;;;6248781;22;20032;-83
2021/06/22 13:07:46;;;;;;;8.70;1.83;;;;;;;;;;6244606;23;20035;-80
2021/06/22 13:10:14;;;;;;;12.00;2.53;;;;;;;;;;6247521;23;20024;-82
2021/06/22 13:12:49;;;;;;;7.57;1.67;;;;;;;;;;6247765;23;20020;-83
2021/06/22 13:15:37;;;;;;;4.55;1.65;;;;;;;;;;6252297;22;20024;-82
2021/06/22 13:18:08;;;;;;;9.52;2.30;;;;;;;;;;6249079;23;20086;-83
2021/06/22 13:20:41;;;;;;;6.25;1.55;;;;;;;;;;6249357;23;20364;-83
2021/06/22 13:23:09;;;;;;;10.02;2.25;;;;;;;;;;6244959;23;20028;-82
2021/06/22 13:25:42;;;;;;;6.53;2.13;;;;;;;;;;6246492;22;20020;-83
2021/06/22 13:28:16;;;;;;;9.85;2.15;;;;;;;;;;6243695;22;20028;-82
2021/06/22 13:30:49;;;;;;;12.93;2.58;;;;;;;;;;6245558;22;20421;-83
2021/06/22 13:33:20;;;;;;;8.38;2.42;;;;;;;;;;6246427;23;20109;-81
2021/06/22 13:35:59;;;;;;;9.57;2.00;;;;;;;;;;6249364;23;20062;-83
2021/06/22 13:38:31;;;;;;;8.40;2.08;;;;;;;;;;6252066;23;20058;-82
2021/06/22 13:41:06;;;;;;;8.35;1.90;;;;;;;;;;6249279;22;20039;-83
2021/06/22 13:43:38;;;;;;;5.93;1.80;;;;;;;;;;6249200;22;20028;-83
2021/06/22 13:46:08;;;;;;;9.00;2.08;;;;;;;;;;6247103;22;20024;-83
2021/06/22 13:48:49;;;;;;;7.88;2.30;;;;;;;;;;6244678;22;20027;-84
2021/06/22 13:51:26;;;;;;;8.07;1.88;;;;;;;;;;6243410;23;20188;-83
2021/06/22 13:54:04;;;;;;;5.70;1.88;;;;;;;;;;6244319;22;20094;-82
2021/06/22 13:56:33;;;;;;;14.20;2.10;;;;;;;;;;6248411;22;20024;-83
2021/06/22 13:59:01;;;;;;;5.80;1.70;;;;;;;;;;6221813;22;20046;-82
2021/06/22 14:01:33;;;;;;;8.07;2.10;;;;;;;;;;6250556;22;20023;-82
2021/06/22 14:04:01;;;;;;;8.63;2.03;;;;;;;;;;6274306;22;20026;-82
2021/06/22 14:06:28;;;;;;;5.82;1.92;;;;;;;;;;6274869;22;20135;-82
2021/06/22 14:08:55;;;;;;;7.15;1.80;;;;;;;;;;6274802;22;20260;-83
2021/06/22 14:11:23;;;;;;;10.75;2.10;;;;;;;;;;6250556;22;20249;-82
2021/06/22 14:13:56;;;;;;;6.68;1.80;;;;;;;;;;6249576;22;20028;-82
2021/06/22 14:16:26;;;;;;;10.80;1.90;;;;;;;;;;6276522;22;20253;-81
2021/06/22 14:18:56;;;;;;;6.25;2.00;;;;;;;;;;6278242;22;20023;-83
2021/06/22 14:21:22;;;;;;;5.40;1.92;;;;;;;;;;6279407;22;20027;-83
2021/06/22 14:23:51;;;;;;;8.07;1.65;;;;;;;;;;6277898;22;20169;-82
2021/06/22 14:26:19;;;;;;;6.72;1.40;;;;;;;;;;6259655;22;20027;-84
2021/06/22 14:28:56;;;;;;;5.10;1.40;;;;;;;;;;6269870;22;20031;-83
2021/06/22 14:31:23;;;;;;;7.00;1.58;;;;;;;;;;6289677;22;20028;-82
2021/06/22 14:33:50;;;;;;;3.33;1.45;;;;;;;;;;6279038;22;20106;-83
2021/06/22 14:36:16;;;;;;;8.43;1.20;;;;;;;;;;6249780;22;20131;-82
2021/06/22 14:38:49;;;;;;;8.80;1.58;;;;;;;;;;6273110;22;20024;-83
2021/06/22 14:41:16;;;;;;;8.90;2.08;;;;;;;;;;6277352;22;20389;-84
2021/06/22 14:43:42;;;;;;;11.68;1.50;;;;;;;;;;6277151;22;20589;-82
2021/06/22 14:46:10;;;;;;;5.78;1.23;;;;;;;;;;6250495;22;20093;-82
2021/06/22 14:48:40;;;;;;;6.60;1.52;;;;;;;;;;6247412;22;20390;-82
2021/06/22 14:51:10;;;;;;;6.68;1.83;;;;;;;;;;6247780;22;20075;-83
2021/06/22 14:53:37;;;;;;;10.65;1.75;;;;;;;;;;6278580;22;20042;-82
2021/06/22 14:56:04;;;;;;;6.55;1.45;;;;;;;;;;6275419;22;20023;-83
2021/06/22 14:58:32;;;;;;;7.80;1.40;;;;;;;;;;6274366;22;20306;-81
2021/06/22 15:00:59;;;;;;;7.78;1.48;;;;;;;;;;6270125;22;20406;-82
2021/06/22 15:03:28;;;;;;;8.05;1.58;;;;;;;;;;6273085;22;20034;-83
2021/06/22 15:05:55;;;;;;;8.35;1.80;;;;;;;;;;6251436;22;20256;-83
2021/06/22 15:08:22;;;;;;;6.18;1.70;;;;;;;;;;6275848;22;20400;-82